createdAt,value
2022-12-18T00:02:39.209Z,213.61
2022-12-18T00:05:51.573Z,207.16
2022-12-18T00:08:59.885Z,207.71
2022-12-18T00:15:24.664Z,204.74
2022-12-18T00:18:30.082Z,198.62
2022-12-18T00:21:38.122Z,203.93
2022-12-18T00:24:44.351Z,206.06
2022-12-18T00:27:50.805Z,207.81
2022-12-18T00:31:05.020Z,207.89
2022-12-18T00:34:15.256Z,208.67
2022-12-18T00:37:20.751Z,204.54
2022-12-18T00:40:30.867Z,208.63
2022-12-18T00:43:33.802Z,207.46
2022-12-18T00:46:43.540Z,204.57
2022-12-18T00:49:49.269Z,203.51
2022-12-18T00:52:55.899Z,200.33
2022-12-18T00:56:01.511Z,199.78
2022-12-18T00:59:08.417Z,200.40
2022-12-18T01:02:17.695Z,196.05
2022-12-18T01:05:24.309Z,193.18
2022-12-18T01:08:30.875Z,191.32
2022-12-18T01:11:37.087Z,194.13
2022-12-18T01:14:43.307Z,204.48
2022-12-18T01:17:52.127Z,204.40
2022-12-18T01:20:58.129Z,192.98
2022-12-18T01:24:04.474Z,193.32
2022-12-18T01:27:10.099Z,204.69
2022-12-18T01:30:16.960Z,269.35
2022-12-18T01:33:25.037Z,238.39
2022-12-18T01:36:34.689Z,226.17
2022-12-18T01:39:40.474Z,248.21
2022-12-18T01:42:46.859Z,251.35
2022-12-18T01:45:52.557Z,262.44
2022-12-18T01:49:05.882Z,242.34
2022-12-18T01:52:11.491Z,227.00
2022-12-18T01:55:26.498Z,210.43
2022-12-18T01:58:48.190Z,204.93
2022-12-18T02:01:55.116Z,203.88
2022-12-18T02:05:04.085Z,221.64
2022-12-18T02:08:24.446Z,228.25
2022-12-18T02:11:51.418Z,239.06
2022-12-18T02:15:11.200Z,236.05
2022-12-18T02:18:27.743Z,235.84
2022-12-18T02:21:59.007Z,234.07
2022-12-18T02:25:27.960Z,223.24
2022-12-18T02:28:46.423Z,226.39
2022-12-18T02:32:01.132Z,221.90
2022-12-18T02:35:13.623Z,227.71
2022-12-18T02:38:22.015Z,223.32
2022-12-18T02:41:35.017Z,233.08
2022-12-18T02:44:52.668Z,239.20
2022-12-18T02:48:03.170Z,234.48
2022-12-18T02:51:27.927Z,238.30
2022-12-18T02:55:04.031Z,248.18
2022-12-18T02:58:23.735Z,233.63
2022-12-18T03:01:47.322Z,241.35
2022-12-18T03:05:03.328Z,231.41
2022-12-18T03:08:21.007Z,231.10
2022-12-18T03:11:46.329Z,231.49
2022-12-18T03:15:02.022Z,233.08
2022-12-18T03:18:19.414Z,227.14
2022-12-18T03:21:33.900Z,232.32
2022-12-18T03:24:42.195Z,235.86
2022-12-18T03:27:58.185Z,236.55
2022-12-18T03:31:11.473Z,235.87
2022-12-18T03:34:30.588Z,237.22
2022-12-18T03:37:43.927Z,242.17
2022-12-18T03:41:10.175Z,231.19
2022-12-18T03:44:40.388Z,239.66
2022-12-18T03:48:05.282Z,236.42
2022-12-18T03:51:31.269Z,234.12
2022-12-18T03:54:43.619Z,233.41
2022-12-18T03:57:57.767Z,226.49
2022-12-18T04:01:16.647Z,235.49
2022-12-18T04:04:30.724Z,247.11
2022-12-18T04:07:44.373Z,257.31
2022-12-18T04:10:50.514Z,251.86
2022-12-18T04:14:01.937Z,247.14
2022-12-18T04:17:10.695Z,248.04
2022-12-18T04:20:17.401Z,253.63
2022-12-18T04:23:26.603Z,251.38
2022-12-18T04:26:36.572Z,257.26
2022-12-18T04:30:13.338Z,257.61
2022-12-18T04:33:25.071Z,272.23
2022-12-18T04:36:30.781Z,278.01
2022-12-18T04:39:39.883Z,264.86
2022-12-18T04:42:55.937Z,260.72
2022-12-18T04:46:07.385Z,263.00
2022-12-18T04:49:13.592Z,263.28
2022-12-18T04:52:20.384Z,267.51
2022-12-18T04:55:35.450Z,274.43
2022-12-18T04:58:43.977Z,279.17
2022-12-18T05:01:49.725Z,278.81
2022-12-18T05:04:56.173Z,271.32
2022-12-18T05:08:01.723Z,273.69
2022-12-18T05:11:16.032Z,265.12
2022-12-18T05:14:21.655Z,268.17
2022-12-18T05:17:28.093Z,272.97
2022-12-18T05:20:34.443Z,278.38
2022-12-18T05:23:41.617Z,272.22
2022-12-18T05:26:50.153Z,267.33
2022-12-18T05:29:56.513Z,266.19
2022-12-18T05:33:01.998Z,267.44
2022-12-18T05:36:12.525Z,259.75
2022-12-18T05:39:18.332Z,261.74
2022-12-18T05:42:27.376Z,268.41
2022-12-18T05:45:33.339Z,266.32
2022-12-18T05:48:39.756Z,271.41
2022-12-18T05:51:45.204Z,275.41
2022-12-18T05:54:51.453Z,276.68
2022-12-18T05:57:59.571Z,274.63
2022-12-18T06:01:14.260Z,300.36
2022-12-18T06:04:19.977Z,334.41
2022-12-18T06:07:26.268Z,346.84
2022-12-18T06:10:31.684Z,304.32
2022-12-18T06:13:41.351Z,305.61
2022-12-18T06:16:47.850Z,296.26
2022-12-18T06:19:54.113Z,279.60
2022-12-18T06:22:59.684Z,314.74
2022-12-18T06:26:09.232Z,315.23
2022-12-18T06:29:17.323Z,302.15
2022-12-18T06:32:23.874Z,299.32
2022-12-18T06:35:29.393Z,297.08
2022-12-18T06:38:36.369Z,301.53
2022-12-18T06:41:42.150Z,305.73
2022-12-18T06:44:51.188Z,309.21
2022-12-18T06:47:57.642Z,322.52
2022-12-18T06:51:05.788Z,331.97
2022-12-18T06:54:11.844Z,320.11
2022-12-18T06:57:18.171Z,300.94
2022-12-18T07:00:26.345Z,293.70
2022-12-18T07:03:33.086Z,297.73
2022-12-18T07:06:38.769Z,326.15
2022-12-18T07:09:45.066Z,332.47
2022-12-18T07:12:50.552Z,327.89
2022-12-18T07:15:59.505Z,332.20
2022-12-18T07:19:04.993Z,321.88
2022-12-18T07:22:11.283Z,311.37
2022-12-18T07:25:16.887Z,310.19
2022-12-18T07:28:23.304Z,306.86
2022-12-18T07:31:32.529Z,314.55
2022-12-18T07:34:39.349Z,309.15
2022-12-18T07:37:44.754Z,326.96
2022-12-18T07:40:55.976Z,337.04
2022-12-18T07:44:01.373Z,348.21
2022-12-18T07:47:12.345Z,385.95
2022-12-18T07:50:18.446Z,403.51
2022-12-18T07:53:24.730Z,396.69
2022-12-18T07:56:31.422Z,402.74
2022-12-18T07:59:37.983Z,408.79
2022-12-18T08:02:46.181Z,427.87
2022-12-18T08:05:52.612Z,411.79
2022-12-18T08:08:59.876Z,404.00
2022-12-18T08:12:07.370Z,404.17
2022-12-18T08:15:22.266Z,401.75
2022-12-18T08:18:31.911Z,392.06
2022-12-18T08:21:37.499Z,407.50
2022-12-18T08:24:43.903Z,414.10
2022-12-18T08:27:51.779Z,421.54
2022-12-18T08:30:58.233Z,415.18
2022-12-18T08:34:06.427Z,420.93
2022-12-18T08:37:12.911Z,453.06
2022-12-18T08:40:18.648Z,558.35
2022-12-18T08:43:37.650Z,571.72
2022-12-18T08:46:49.236Z,564.51
2022-12-18T08:50:00.442Z,548.24
2022-12-18T08:53:07.339Z,526.12
2022-12-18T08:56:15.865Z,505.02
2022-12-18T08:59:24.381Z,491.13
2022-12-18T09:02:32.231Z,441.61
2022-12-18T09:05:41.623Z,382.03
2022-12-18T09:08:56.020Z,380.39
2022-12-18T09:12:01.487Z,398.39
2022-12-18T09:15:13.022Z,395.43
2022-12-18T09:18:23.005Z,422.98
2022-12-18T09:21:37.693Z,433.16
2022-12-18T09:24:43.695Z,398.26
2022-12-18T09:27:51.810Z,394.44
2022-12-18T09:31:00.355Z,401.13
2022-12-18T09:34:07.223Z,381.47
2022-12-18T09:37:15.553Z,361.84
2022-12-18T09:40:27.476Z,358.57
2022-12-18T09:43:45.425Z,381.09
2022-12-18T09:47:07.735Z,452.26
2022-12-18T09:50:31.074Z,449.84
2022-12-18T09:53:48.701Z,400.14
2022-12-18T09:56:54.353Z,405.94
2022-12-18T10:00:10.953Z,397.00
2022-12-18T10:03:24.425Z,407.91
2022-12-18T10:06:50.145Z,445.77
2022-12-18T10:10:18.384Z,480.94
2022-12-18T10:13:37.560Z,488.00
2022-12-18T10:17:03.566Z,501.12
2022-12-18T10:20:24.851Z,538.55
2022-12-18T10:23:49.315Z,495.11
2022-12-18T10:27:16.296Z,480.56
2022-12-18T10:30:25.794Z,488.84
2022-12-18T10:33:37.032Z,493.25
2022-12-18T10:36:43.275Z,445.93
2022-12-18T10:39:50.392Z,412.92
2022-12-18T10:43:09.799Z,517.34
2022-12-18T10:46:21.847Z,334.56
2022-12-18T10:49:31.952Z,410.97
2022-12-18T10:52:43.544Z,524.12
2022-12-18T10:55:51.686Z,319.68
2022-12-18T10:59:08.879Z,426.60
2022-12-18T11:02:37.589Z,285.12
2022-12-18T11:05:44.238Z,279.95
2022-12-18T11:09:12.301Z,301.72
2022-12-18T11:12:23.938Z,297.44
2022-12-18T11:15:34.954Z,261.03
2022-12-18T11:18:41.840Z,234.87
2022-12-18T11:21:47.877Z,235.56
2022-12-18T11:25:30.937Z,239.44
2022-12-18T11:28:42.246Z,451.02
2022-12-18T11:31:51.550Z,2328.82
2022-12-18T11:35:07.808Z,217.93
2022-12-18T11:38:28.040Z,438.00
2022-12-18T11:42:00.098Z,221.59
2022-12-18T11:45:32.657Z,430.50
2022-12-18T11:48:53.109Z,667.29
2022-12-18T11:52:16.505Z,254.99
2022-12-18T11:55:42.551Z,236.79
2022-12-18T11:59:01.455Z,358.23
2022-12-18T12:02:41.279Z,225.79
2022-12-18T12:06:15.823Z,248.56
2022-12-18T12:09:41.518Z,256.54
2022-12-18T12:13:13.106Z,199.84
2022-12-18T12:16:30.568Z,205.84
2022-12-18T12:19:55.459Z,236.35
2022-12-18T12:23:23.529Z,209.77
2022-12-18T12:26:50.598Z,211.57
2022-12-18T12:30:22.448Z,213.31
2022-12-18T12:33:47.424Z,236.59
2022-12-18T12:37:19.298Z,271.61
2022-12-18T12:40:52.464Z,226.61
2022-12-18T12:44:07.741Z,290.75
2022-12-18T12:47:30.507Z,243.09
2022-12-18T12:50:40.076Z,312.62
2022-12-18T12:53:47.032Z,586.03
2022-12-18T12:57:10.062Z,1696.76
2022-12-18T13:00:25.282Z,2781.59
2022-12-18T13:03:51.722Z,2337.44
2022-12-18T13:07:10.687Z,502.99
2022-12-18T13:10:34.881Z,1223.22
2022-12-18T13:13:57.417Z,974.04
2022-12-18T13:17:34.755Z,723.62
2022-12-18T13:20:52.496Z,366.91
2022-12-18T13:24:18.193Z,991.32
2022-12-18T13:28:03.684Z,1881.28
2022-12-18T13:31:11.807Z,688.33
2022-12-18T13:34:26.855Z,677.73
2022-12-18T13:37:57.436Z,871.12
2022-12-18T13:41:06.821Z,642.02
2022-12-18T13:44:29.335Z,663.67
2022-12-18T13:47:42.050Z,2126.60
2022-12-18T13:50:53.385Z,5289.25
2022-12-18T13:54:05.881Z,1707.92
2022-12-18T13:57:32.661Z,907.82
2022-12-18T14:00:44.949Z,427.84
2022-12-18T14:03:54.444Z,403.76
2022-12-18T14:07:08.967Z,380.15
2022-12-18T14:10:50.436Z,368.39
2022-12-18T14:13:50.539Z,389.46
2022-12-18T14:16:57.506Z,449.25
2022-12-18T14:20:08.143Z,439.17
2022-12-18T14:23:31.358Z,398.04
2022-12-18T14:26:39.094Z,394.83
2022-12-18T14:29:48.794Z,468.37
2022-12-18T14:33:05.602Z,422.97
2022-12-18T14:36:25.049Z,461.07
2022-12-18T14:39:33.243Z,481.99
2022-12-18T14:42:40.520Z,505.07
2022-12-18T14:45:50.794Z,540.55
2022-12-18T14:48:58.356Z,595.80
2022-12-18T14:52:26.108Z,615.58
2022-12-18T14:55:36.499Z,623.74
2022-12-18T14:58:54.472Z,624.67
2022-12-18T15:02:19.761Z,595.50
2022-12-18T15:05:33.300Z,674.87
2022-12-18T15:08:51.227Z,629.88
2022-12-18T15:12:04.136Z,529.95
2022-12-18T15:15:57.607Z,499.32
2022-12-18T15:19:07.663Z,480.58
2022-12-18T15:22:30.687Z,481.68
2022-12-18T15:25:47.676Z,538.32
2022-12-18T15:28:59.848Z,586.47
2022-12-18T15:32:23.635Z,583.94
2022-12-18T15:35:30.229Z,597.60
2022-12-18T15:38:39.735Z,648.41
2022-12-18T15:42:02.494Z,664.75
2022-12-18T15:45:19.493Z,650.33
2022-12-18T15:48:29.693Z,680.96
2022-12-18T15:51:40.497Z,738.33
2022-12-18T15:55:00.684Z,790.17
2022-12-18T15:58:12.800Z,829.36
2022-12-18T16:01:26.491Z,902.13
2022-12-18T16:04:35.566Z,826.34
2022-12-18T16:07:42.194Z,855.56
2022-12-18T16:10:49.729Z,812.99
2022-12-18T16:13:58.230Z,803.69
2022-12-18T16:17:09.191Z,852.44
2022-12-18T16:20:19.389Z,934.34
2022-12-18T16:23:32.502Z,973.94
2022-12-18T16:26:39.123Z,1016.73
2022-12-18T16:29:52.117Z,1119.24
2022-12-18T16:32:59.317Z,1201.20
2022-12-18T16:36:09.053Z,1242.61
2022-12-18T16:39:17.500Z,1075.40
2022-12-18T16:42:26.466Z,951.45
2022-12-18T16:45:37.873Z,942.35
2022-12-18T16:48:47.953Z,992.02
2022-12-18T16:52:00.417Z,1221.90
2022-12-18T16:55:10.957Z,1259.77
2022-12-18T16:58:18.762Z,1041.51
2022-12-18T17:01:35.273Z,880.49
2022-12-18T17:04:41.039Z,852.37
2022-12-18T17:07:47.659Z,732.28
2022-12-18T17:10:56.252Z,672.91
2022-12-18T17:14:08.992Z,570.01
2022-12-18T17:17:21.280Z,546.52
2022-12-18T17:20:28.463Z,548.89
2022-12-18T17:23:34.155Z,555.40
2022-12-18T17:26:40.955Z,537.39
2022-12-18T17:29:48.391Z,495.48
2022-12-18T17:32:57.914Z,482.70
2022-12-18T17:36:03.362Z,495.29
2022-12-18T17:39:11.089Z,500.55
2022-12-18T17:42:19.800Z,498.18
2022-12-18T17:45:26.328Z,491.61
2022-12-18T17:48:34.969Z,496.18
2022-12-18T17:51:43.199Z,490.59
2022-12-18T17:54:48.756Z,491.37
2022-12-18T17:57:55.589Z,491.28
2022-12-18T18:01:02.545Z,488.72
2022-12-18T18:04:14.119Z,479.62
2022-12-18T18:07:19.885Z,501.02
2022-12-18T18:10:26.446Z,516.14
2022-12-18T18:13:47.202Z,530.07
2022-12-18T18:16:55.410Z,562.80
2022-12-18T18:20:04.945Z,587.38
2022-12-18T18:23:11.652Z,632.59
2022-12-18T18:26:23.579Z,627.89
2022-12-18T18:29:35.050Z,558.72
2022-12-18T18:32:40.679Z,546.48
2022-12-18T18:35:54.585Z,586.29
2022-12-18T18:39:03.264Z,588.31
2022-12-18T18:42:10.798Z,560.22
2022-12-18T18:45:17.570Z,561.59
2022-12-18T18:48:23.835Z,556.19
2022-12-18T18:51:37.540Z,554.10
2022-12-18T18:55:03.549Z,564.48
2022-12-18T18:58:09.482Z,563.64
2022-12-18T19:01:19.904Z,569.46
2022-12-18T19:04:26.422Z,605.56
2022-12-18T19:07:35.995Z,644.18
2022-12-18T19:10:43.528Z,637.42
2022-12-18T19:13:47.184Z,583.25
2022-12-18T19:16:54.378Z,597.40
2022-12-18T19:20:02.334Z,580.85
2022-12-18T19:23:11.086Z,581.33
2022-12-18T19:26:34.748Z,611.27
2022-12-18T19:29:40.756Z,604.47
2022-12-18T19:32:47.393Z,582.71
2022-12-18T19:35:53.696Z,576.00
2022-12-18T19:39:05.383Z,507.57
2022-12-18T19:42:12.667Z,478.08
2022-12-18T19:45:20.360Z,487.99
2022-12-18T19:48:26.243Z,522.05
2022-12-18T19:51:34.811Z,478.28
2022-12-18T19:54:43.666Z,485.63
2022-12-18T19:57:50.318Z,484.39
2022-12-18T20:00:57.132Z,455.65
2022-12-18T20:04:06.766Z,459.12
2022-12-18T20:07:15.714Z,488.38
2022-12-18T20:10:24.842Z,457.56
2022-12-18T20:13:31.587Z,443.32
2022-12-18T20:16:39.384Z,442.00
2022-12-18T20:19:45.844Z,474.20
2022-12-18T20:22:56.959Z,455.25
2022-12-18T20:26:08.568Z,470.45
2022-12-18T20:29:15.414Z,483.65
2022-12-18T20:32:20.926Z,467.10
2022-12-18T20:35:31.251Z,451.69
2022-12-18T20:38:39.261Z,436.09
2022-12-18T20:41:49.710Z,458.29
2022-12-18T20:44:55.617Z,446.24
2022-12-18T20:48:02.479Z,458.40
2022-12-18T20:51:11.652Z,457.98
2022-12-18T20:54:18.718Z,455.00
2022-12-18T20:57:27.030Z,470.62
2022-12-18T21:00:33.357Z,457.30
2022-12-18T21:03:38.859Z,451.39
2022-12-18T21:06:49.375Z,454.61
2022-12-18T21:09:57.933Z,465.54
2022-12-18T21:13:08.634Z,485.28
2022-12-18T21:16:14.365Z,523.85
2022-12-18T21:19:23.826Z,540.25
2022-12-18T21:22:31.180Z,527.19
2022-12-18T21:25:37.584Z,493.37
2022-12-18T21:28:45.890Z,450.60
2022-12-18T21:31:54.575Z,450.50
2022-12-18T21:35:00.288Z,453.41
2022-12-18T21:38:06.856Z,446.65
2022-12-18T21:41:40.326Z,439.98
2022-12-18T21:44:49.809Z,431.35
2022-12-18T21:47:56.066Z,428.93
2022-12-18T21:51:03.104Z,430.60
2022-12-18T21:54:10.673Z,433.11
2022-12-18T21:57:18.790Z,439.82
2022-12-18T22:00:28.371Z,433.44
2022-12-18T22:03:34.820Z,455.74
2022-12-18T22:06:42.890Z,476.04
2022-12-18T22:09:50.104Z,505.17
2022-12-18T22:12:55.655Z,482.44
2022-12-18T22:16:10.952Z,470.39
2022-12-18T22:19:17.802Z,454.80
2022-12-18T22:22:27.060Z,439.96
2022-12-18T22:25:33.161Z,474.52
2022-12-18T22:28:54.039Z,481.80
2022-12-18T22:32:02.514Z,448.32
2022-12-18T22:35:15.845Z,468.37
2022-12-18T22:38:21.627Z,433.61
2022-12-18T22:41:28.279Z,409.65
2022-12-18T22:44:36.564Z,408.13
2022-12-18T22:47:45.808Z,422.25
2022-12-18T22:50:51.557Z,454.51
2022-12-18T22:54:07.174Z,465.33
2022-12-18T22:57:13.254Z,516.25
2022-12-18T23:00:24.183Z,463.35
2022-12-18T23:03:35.719Z,465.88
2022-12-18T23:06:48.087Z,450.11
2022-12-18T23:10:00.936Z,422.56
2022-12-18T23:13:07.932Z,416.66
2022-12-18T23:16:18.031Z,466.40
2022-12-18T23:19:27.982Z,441.67
2022-12-18T23:22:33.513Z,529.69
2022-12-18T23:25:40.288Z,567.69
2022-12-18T23:28:46.736Z,460.35
2022-12-18T23:31:53.244Z,603.40
2022-12-18T23:35:01.407Z,711.91
2022-12-18T23:38:07.800Z,513.12
2022-12-18T23:41:18.459Z,510.54
2022-12-18T23:44:25.168Z,468.41
2022-12-18T23:47:30.734Z,439.67
2022-12-18T23:50:41.322Z,477.42
2022-12-18T23:53:47.812Z,432.58
2022-12-18T23:56:54.131Z,473.71
2022-12-18T23:59:59.635Z,443.32
